createdAt,value
2022-10-08T00:18:31.309Z,20.5
2022-10-08T00:48:31.301Z,20.5
2022-10-08T01:18:31.309Z,20.5
2022-10-08T01:48:31.355Z,20.5
2022-10-08T02:18:31.335Z,20.5
2022-10-08T02:48:31.314Z,20.4
2022-10-08T03:18:31.290Z,20.4
2022-10-08T03:48:31.316Z,20.4
2022-10-08T04:18:31.326Z,20.4
2022-10-08T04:48:31.293Z,20.4
2022-10-08T05:18:31.335Z,20.3
2022-10-08T05:48:31.294Z,20.3
2022-10-08T06:18:31.340Z,20.3
2022-10-08T06:48:31.298Z,20.4
2022-10-08T07:18:31.304Z,20.5
2022-10-08T07:48:31.292Z,20.8
2022-10-08T08:18:31.316Z,21.0
2022-10-08T08:48:31.313Z,21.2
2022-10-08T09:18:31.289Z,21.2
2022-10-08T09:48:31.299Z,21.2
2022-10-08T10:18:31.300Z,21.1
2022-10-08T10:48:31.304Z,21.1
2022-10-08T11:18:31.366Z,21.0
2022-10-08T11:48:31.397Z,21.0
2022-10-08T12:18:31.295Z,20.9
2022-10-08T12:48:31.283Z,20.9
2022-10-08T13:18:31.285Z,20.8
2022-10-08T13:48:31.298Z,20.8
2022-10-08T14:18:31.327Z,20.8
2022-10-08T14:48:31.306Z,20.8
2022-10-08T15:18:31.308Z,20.7
2022-10-08T15:48:31.020Z,20.7
2022-10-08T16:18:31.284Z,20.7
2022-10-08T16:48:31.310Z,20.7
2022-10-08T17:18:31.265Z,20.6
2022-10-08T17:48:31.272Z,20.6
2022-10-08T18:18:31.270Z,20.6
2022-10-08T18:48:31.284Z,20.6
2022-10-08T19:18:31.321Z,20.5
2022-10-08T19:48:31.284Z,20.5
2022-10-08T20:18:30.993Z,20.5
2022-10-08T20:48:31.298Z,20.5
2022-10-08T21:18:31.253Z,20.4
2022-10-08T21:48:31.270Z,20.4
2022-10-08T22:18:31.256Z,20.3
2022-10-08T22:48:31.296Z,20.3
2022-10-08T23:18:31.306Z,20.3
2022-10-08T23:48:31.263Z,20.3
